sensor_id;sensor_type;location;lat;lon;timestamp;temperature;humidity
21493;DHT22;10908;50.690;4.400;2023-08-24T00:01:30;21.10;72.00
21493;DHT22;10908;50.690;4.400;2023-08-24T00:03:56;21.00;71.80
21493;DHT22;10908;50.690;4.400;2023-08-24T00:06:22;20.90;72.50
21493;DHT22;10908;50.690;4.400;2023-08-24T00:08:47;20.90;72.40
21493;DHT22;10908;50.690;4.400;2023-08-24T00:11:13;20.90;72.20
21493;DHT22;10908;50.690;4.400;2023-08-24T00:13:44;20.80;72.60
21493;DHT22;10908;50.690;4.400;2023-08-24T00:16:17;20.80;72.90
21493;DHT22;10908;50.690;4.400;2023-08-24T00:18:43;20.80;72.40
21493;DHT22;10908;50.690;4.400;2023-08-24T00:21:10;20.60;72.00
21493;DHT22;10908;50.690;4.400;2023-08-24T00:23:36;20.40;72.90
21493;DHT22;10908;50.690;4.400;2023-08-24T00:26:02;20.40;73.10
21493;DHT22;10908;50.690;4.400;2023-08-24T00:28:27;20.50;72.80
21493;DHT22;10908;50.690;4.400;2023-08-24T00:30:53;20.50;72.60
21493;DHT22;10908;50.690;4.400;2023-08-24T00:33:19;20.50;72.00
21493;DHT22;10908;50.690;4.400;2023-08-24T00:35:45;20.40;72.40
21493;DHT22;10908;50.690;4.400;2023-08-24T00:38:10;20.50;72.20
21493;DHT22;10908;50.690;4.400;2023-08-24T00:40:36;20.40;72.50
21493;DHT22;10908;50.690;4.400;2023-08-24T00:43:03;20.40;72.70
21493;DHT22;10908;50.690;4.400;2023-08-24T00:45:30;20.70;72.20
21493;DHT22;10908;50.690;4.400;2023-08-24T00:47:58;20.70;72.10
21493;DHT22;10908;50.690;4.400;2023-08-24T00:50:24;20.70;72.40
21493;DHT22;10908;50.690;4.400;2023-08-24T00:52:50;20.60;72.40
21493;DHT22;10908;50.690;4.400;2023-08-24T00:55:16;20.60;72.80
21493;DHT22;10908;50.690;4.400;2023-08-24T00:57:43;20.70;72.90
21493;DHT22;10908;50.690;4.400;2023-08-24T01:00:10;20.60;72.90
21493;DHT22;10908;50.690;4.400;2023-08-24T01:02:37;20.80;72.70
21493;DHT22;10908;50.690;4.400;2023-08-24T01:05:03;20.70;72.80
21493;DHT22;10908;50.690;4.400;2023-08-24T01:07:31;20.60;72.90
21493;DHT22;10908;50.690;4.400;2023-08-24T01:09:56;20.60;73.30
21493;DHT22;10908;50.690;4.400;2023-08-24T01:12:35;20.70;73.10
21493;DHT22;10908;50.690;4.400;2023-08-24T01:15:09;20.60;73.30
21493;DHT22;10908;50.690;4.400;2023-08-24T01:17:39;20.70;72.70
21493;DHT22;10908;50.690;4.400;2023-08-24T01:20:10;20.50;72.30
21493;DHT22;10908;50.690;4.400;2023-08-24T01:23:03;20.30;73.70
21493;DHT22;10908;50.690;4.400;2023-08-24T01:25:52;20.30;74.20
21493;DHT22;10908;50.690;4.400;2023-08-24T01:28:22;20.10;74.50
21493;DHT22;10908;50.690;4.400;2023-08-24T01:30:48;20.30;74.60
21493;DHT22;10908;50.690;4.400;2023-08-24T01:33:14;20.40;73.70
21493;DHT22;10908;50.690;4.400;2023-08-24T01:35:40;20.30;73.50
21493;DHT22;10908;50.690;4.400;2023-08-24T01:38:07;20.10;74.10
21493;DHT22;10908;50.690;4.400;2023-08-24T01:43:30;20.40;74.10
21493;DHT22;10908;50.690;4.400;2023-08-24T01:46:00;20.40;73.40
21493;DHT22;10908;50.690;4.400;2023-08-24T01:48:28;20.60;73.40
21493;DHT22;10908;50.690;4.400;2023-08-24T01:50:55;20.60;73.10
21493;DHT22;10908;50.690;4.400;2023-08-24T01:53:21;20.70;73.00
21493;DHT22;10908;50.690;4.400;2023-08-24T01:55:47;20.90;72.10
21493;DHT22;10908;50.690;4.400;2023-08-24T01:58:13;20.90;72.30
21493;DHT22;10908;50.690;4.400;2023-08-24T02:00:38;20.90;72.50
21493;DHT22;10908;50.690;4.400;2023-08-24T02:03:04;21.00;72.80
21493;DHT22;10908;50.690;4.400;2023-08-24T02:05:30;21.00;73.20
21493;DHT22;10908;50.690;4.400;2023-08-24T02:07:55;21.00;73.60
21493;DHT22;10908;50.690;4.400;2023-08-24T02:10:23;21.10;73.50
21493;DHT22;10908;50.690;4.400;2023-08-24T02:12:48;21.10;73.40
21493;DHT22;10908;50.690;4.400;2023-08-24T02:15:14;21.00;74.20
21493;DHT22;10908;50.690;4.400;2023-08-24T02:17:40;20.60;75.60
21493;DHT22;10908;50.690;4.400;2023-08-24T02:20:06;20.40;77.00
21493;DHT22;10908;50.690;4.400;2023-08-24T02:22:34;20.60;77.10
21493;DHT22;10908;50.690;4.400;2023-08-24T02:24:59;20.70;77.30
21493;DHT22;10908;50.690;4.400;2023-08-24T02:27:26;20.70;77.70
21493;DHT22;10908;50.690;4.400;2023-08-24T02:29:52;20.60;78.30
21493;DHT22;10908;50.690;4.400;2023-08-24T02:32:18;20.60;78.10
21493;DHT22;10908;50.690;4.400;2023-08-24T02:34:43;20.40;78.80
21493;DHT22;10908;50.690;4.400;2023-08-24T02:37:09;20.40;79.40
21493;DHT22;10908;50.690;4.400;2023-08-24T02:39:35;20.30;80.30
21493;DHT22;10908;50.690;4.400;2023-08-24T02:42:01;20.20;81.10
21493;DHT22;10908;50.690;4.400;2023-08-24T02:44:27;20.30;81.70
21493;DHT22;10908;50.690;4.400;2023-08-24T02:46:54;20.10;82.70
21493;DHT22;10908;50.690;4.400;2023-08-24T02:49:20;20.20;83.20
21493;DHT22;10908;50.690;4.400;2023-08-24T02:51:46;20.10;83.50
21493;DHT22;10908;50.690;4.400;2023-08-24T02:54:11;20.10;83.80
21493;DHT22;10908;50.690;4.400;2023-08-24T02:56:37;20.10;84.10
21493;DHT22;10908;50.690;4.400;2023-08-24T02:59:03;20.20;84.40
21493;DHT22;10908;50.690;4.400;2023-08-24T03:01:28;20.30;84.30
21493;DHT22;10908;50.690;4.400;2023-08-24T03:03:54;20.40;84.20
21493;DHT22;10908;50.690;4.400;2023-08-24T03:06:20;20.50;84.00
21493;DHT22;10908;50.690;4.400;2023-08-24T03:08:45;20.60;83.30
21493;DHT22;10908;50.690;4.400;2023-08-24T03:11:11;20.70;83.10
21493;DHT22;10908;50.690;4.400;2023-08-24T03:13:38;20.40;83.20
21493;DHT22;10908;50.690;4.400;2023-08-24T03:16:05;20.10;84.30
21493;DHT22;10908;50.690;4.400;2023-08-24T03:18:31;20.00;84.90
21493;DHT22;10908;50.690;4.400;2023-08-24T03:20:57;19.80;85.40
21493;DHT22;10908;50.690;4.400;2023-08-24T03:23:23;19.90;85.60
21493;DHT22;10908;50.690;4.400;2023-08-24T03:25:49;19.80;85.80
21493;DHT22;10908;50.690;4.400;2023-08-24T03:28:14;19.80;86.20
21493;DHT22;10908;50.690;4.400;2023-08-24T03:30:46;19.70;86.50
21493;DHT22;10908;50.690;4.400;2023-08-24T03:33:12;19.80;86.30
21493;DHT22;10908;50.690;4.400;2023-08-24T03:35:37;19.90;86.10
21493;DHT22;10908;50.690;4.400;2023-08-24T03:38:03;19.90;85.80
21493;DHT22;10908;50.690;4.400;2023-08-24T03:40:29;20.00;85.60
21493;DHT22;10908;50.690;4.400;2023-08-24T03:42:56;20.00;85.40
21493;DHT22;10908;50.690;4.400;2023-08-24T03:45:21;20.10;85.20
21493;DHT22;10908;50.690;4.400;2023-08-24T03:47:47;20.10;85.20
21493;DHT22;10908;50.690;4.400;2023-08-24T03:50:13;20.20;85.00
21493;DHT22;10908;50.690;4.400;2023-08-24T03:52:39;20.30;84.80
21493;DHT22;10908;50.690;4.400;2023-08-24T03:55:08;20.30;84.70
21493;DHT22;10908;50.690;4.400;2023-08-24T03:57:34;20.10;84.90
21493;DHT22;10908;50.690;4.400;2023-08-24T03:59:59;20.10;84.90
21493;DHT22;10908;50.690;4.400;2023-08-24T04:02:25;20.20;85.10
21493;DHT22;10908;50.690;4.400;2023-08-24T04:04:52;20.00;85.30
21493;DHT22;10908;50.690;4.400;2023-08-24T04:07:18;20.00;85.60
21493;DHT22;10908;50.690;4.400;2023-08-24T04:09:43;19.80;85.90
21493;DHT22;10908;50.690;4.400;2023-08-24T04:12:11;19.90;86.20
21493;DHT22;10908;50.690;4.400;2023-08-24T04:14:36;20.10;86.00
21493;DHT22;10908;50.690;4.400;2023-08-24T04:17:02;20.20;85.60
21493;DHT22;10908;50.690;4.400;2023-08-24T04:19:28;20.20;85.50
21493;DHT22;10908;50.690;4.400;2023-08-24T04:21:53;20.30;85.40
21493;DHT22;10908;50.690;4.400;2023-08-24T04:24:19;20.30;85.20
21493;DHT22;10908;50.690;4.400;2023-08-24T04:26:45;20.30;84.90
21493;DHT22;10908;50.690;4.400;2023-08-24T04:29:10;20.30;85.00
21493;DHT22;10908;50.690;4.400;2023-08-24T04:31:36;20.30;85.00
21493;DHT22;10908;50.690;4.400;2023-08-24T04:34:02;20.30;84.80
21493;DHT22;10908;50.690;4.400;2023-08-24T04:36:29;20.20;85.10
21493;DHT22;10908;50.690;4.400;2023-08-24T04:38:55;20.10;85.50
21493;DHT22;10908;50.690;4.400;2023-08-24T04:41:20;20.20;85.60
21493;DHT22;10908;50.690;4.400;2023-08-24T04:43:46;20.10;85.80
21493;DHT22;10908;50.690;4.400;2023-08-24T04:46:12;20.10;85.80
21493;DHT22;10908;50.690;4.400;2023-08-24T04:48:37;20.10;85.70
21493;DHT22;10908;50.690;4.400;2023-08-24T04:51:03;20.10;85.60
21493;DHT22;10908;50.690;4.400;2023-08-24T04:53:29;20.20;85.60
21493;DHT22;10908;50.690;4.400;2023-08-24T04:55:55;20.20;85.60
21493;DHT22;10908;50.690;4.400;2023-08-24T04:58:21;20.10;85.40
21493;DHT22;10908;50.690;4.400;2023-08-24T05:00:48;20.10;85.50
21493;DHT22;10908;50.690;4.400;2023-08-24T05:03:14;20.00;86.00
21493;DHT22;10908;50.690;4.400;2023-08-24T05:05:39;19.90;86.30
21493;DHT22;10908;50.690;4.400;2023-08-24T05:08:06;19.90;86.50
21493;DHT22;10908;50.690;4.400;2023-08-24T05:10:33;20.00;86.60
21493;DHT22;10908;50.690;4.400;2023-08-24T05:12:59;20.00;86.50
21493;DHT22;10908;50.690;4.400;2023-08-24T05:15:25;20.00;86.40
21493;DHT22;10908;50.690;4.400;2023-08-24T05:17:51;19.90;86.30
21493;DHT22;10908;50.690;4.400;2023-08-24T05:20:25;20.00;86.40
21493;DHT22;10908;50.690;4.400;2023-08-24T05:22:51;19.90;86.50
21493;DHT22;10908;50.690;4.400;2023-08-24T05:25:17;19.90;86.60
21493;DHT22;10908;50.690;4.400;2023-08-24T05:27:43;19.90;86.60
21493;DHT22;10908;50.690;4.400;2023-08-24T05:30:10;19.90;86.80
21493;DHT22;10908;50.690;4.400;2023-08-24T05:32:36;19.80;87.20
21493;DHT22;10908;50.690;4.400;2023-08-24T05:35:08;19.80;87.50
21493;DHT22;10908;50.690;4.400;2023-08-24T05:37:34;20.00;87.60
21493;DHT22;10908;50.690;4.400;2023-08-24T05:40:01;20.20;87.30
21493;DHT22;10908;50.690;4.400;2023-08-24T05:42:27;20.40;87.00
21493;DHT22;10908;50.690;4.400;2023-08-24T05:44:53;20.60;86.20
21493;DHT22;10908;50.690;4.400;2023-08-24T05:47:19;20.70;85.30
21493;DHT22;10908;50.690;4.400;2023-08-24T05:49:45;20.70;84.90
21493;DHT22;10908;50.690;4.400;2023-08-24T05:52:10;20.80;84.60
21493;DHT22;10908;50.690;4.400;2023-08-24T05:54:37;20.90;84.20
21493;DHT22;10908;50.690;4.400;2023-08-24T05:57:03;20.90;84.30
21493;DHT22;10908;50.690;4.400;2023-08-24T05:59:29;21.00;83.90
21493;DHT22;10908;50.690;4.400;2023-08-24T06:01:55;20.80;83.80
21493;DHT22;10908;50.690;4.400;2023-08-24T06:04:21;20.90;84.00
21493;DHT22;10908;50.690;4.400;2023-08-24T06:06:47;20.90;83.70
21493;DHT22;10908;50.690;4.400;2023-08-24T06:09:12;20.80;84.00
21493;DHT22;10908;50.690;4.400;2023-08-24T06:11:38;20.90;84.00
21493;DHT22;10908;50.690;4.400;2023-08-24T06:14:06;21.10;83.90
21493;DHT22;10908;50.690;4.400;2023-08-24T06:16:31;21.20;83.50
21493;DHT22;10908;50.690;4.400;2023-08-24T06:18:57;21.20;83.30
21493;DHT22;10908;50.690;4.400;2023-08-24T06:21:23;21.30;83.20
21493;DHT22;10908;50.690;4.400;2023-08-24T06:23:48;21.30;83.10
21493;DHT22;10908;50.690;4.400;2023-08-24T06:26:14;21.40;82.90
21493;DHT22;10908;50.690;4.400;2023-08-24T06:28:40;21.60;82.70
21493;DHT22;10908;50.690;4.400;2023-08-24T06:31:05;21.70;82.30
21493;DHT22;10908;50.690;4.400;2023-08-24T06:33:33;21.80;82.20
21493;DHT22;10908;50.690;4.400;2023-08-24T06:36:00;21.90;81.90
21493;DHT22;10908;50.690;4.400;2023-08-24T06:38:26;22.00;81.60
21493;DHT22;10908;50.690;4.400;2023-08-24T06:40:52;22.20;80.90
21493;DHT22;10908;50.690;4.400;2023-08-24T06:43:18;22.30;80.80
21493;DHT22;10908;50.690;4.400;2023-08-24T06:45:46;22.30;80.80
21493;DHT22;10908;50.690;4.400;2023-08-24T06:48:12;22.40;80.70
21493;DHT22;10908;50.690;4.400;2023-08-24T06:50:38;22.50;80.50
21493;DHT22;10908;50.690;4.400;2023-08-24T06:53:04;22.70;79.90
21493;DHT22;10908;50.690;4.400;2023-08-24T06:55:30;22.90;79.30
21493;DHT22;10908;50.690;4.400;2023-08-24T06:57:56;22.90;78.90
21493;DHT22;10908;50.690;4.400;2023-08-24T07:00:22;22.90;78.80
21493;DHT22;10908;50.690;4.400;2023-08-24T07:02:51;23.00;78.30
21493;DHT22;10908;50.690;4.400;2023-08-24T07:05:17;23.10;77.70
21493;DHT22;10908;50.690;4.400;2023-08-24T07:07:46;23.20;77.60
21493;DHT22;10908;50.690;4.400;2023-08-24T07:10:13;23.30;77.60
21493;DHT22;10908;50.690;4.400;2023-08-24T07:12:38;23.30;77.60
21493;DHT22;10908;50.690;4.400;2023-08-24T07:15:08;23.20;77.80
21493;DHT22;10908;50.690;4.400;2023-08-24T07:17:34;23.30;77.70
21493;DHT22;10908;50.690;4.400;2023-08-24T07:20:03;23.40;77.30
21493;DHT22;10908;50.690;4.400;2023-08-24T07:22:31;23.60;76.90
21493;DHT22;10908;50.690;4.400;2023-08-24T07:24:57;23.70;76.80
21493;DHT22;10908;50.690;4.400;2023-08-24T07:27:22;23.60;76.50
21493;DHT22;10908;50.690;4.400;2023-08-24T07:29:48;23.70;76.00
21493;DHT22;10908;50.690;4.400;2023-08-24T07:32:14;23.70;76.90
21493;DHT22;10908;50.690;4.400;2023-08-24T07:34:40;23.70;76.60
21493;DHT22;10908;50.690;4.400;2023-08-24T07:37:05;23.70;76.60
21493;DHT22;10908;50.690;4.400;2023-08-24T07:39:32;23.70;76.90
21493;DHT22;10908;50.690;4.400;2023-08-24T07:41:59;23.80;76.70
21493;DHT22;10908;50.690;4.400;2023-08-24T07:44:24;23.90;76.60
21493;DHT22;10908;50.690;4.400;2023-08-24T07:46:50;23.80;77.30
21493;DHT22;10908;50.690;4.400;2023-08-24T07:49:16;23.80;77.50
21493;DHT22;10908;50.690;4.400;2023-08-24T07:51:41;23.90;77.70
21493;DHT22;10908;50.690;4.400;2023-08-24T07:54:10;24.00;77.90
21493;DHT22;10908;50.690;4.400;2023-08-24T07:56:36;24.10;78.00
21493;DHT22;10908;50.690;4.400;2023-08-24T07:59:01;24.20;77.00
21493;DHT22;10908;50.690;4.400;2023-08-24T08:01:29;24.20;77.00
21493;DHT22;10908;50.690;4.400;2023-08-24T08:03:54;24.20;76.00
21493;DHT22;10908;50.690;4.400;2023-08-24T08:06:20;24.30;76.00
21493;DHT22;10908;50.690;4.400;2023-08-24T08:08:47;24.30;76.00
21493;DHT22;10908;50.690;4.400;2023-08-24T08:11:15;24.20;76.00
21493;DHT22;10908;50.690;4.400;2023-08-24T08:13:41;24.30;76.10
21493;DHT22;10908;50.690;4.400;2023-08-24T08:16:07;24.30;75.60
21493;DHT22;10908;50.690;4.400;2023-08-24T08:18:34;24.30;76.50
21493;DHT22;10908;50.690;4.400;2023-08-24T08:21:00;24.30;77.00
21493;DHT22;10908;50.690;4.400;2023-08-24T08:23:26;24.30;76.70
21493;DHT22;10908;50.690;4.400;2023-08-24T08:25:51;24.30;76.20
21493;DHT22;10908;50.690;4.400;2023-08-24T08:28:18;24.30;76.60
21493;DHT22;10908;50.690;4.400;2023-08-24T08:30:44;24.30;76.70
21493;DHT22;10908;50.690;4.400;2023-08-24T08:33:10;24.30;76.70
21493;DHT22;10908;50.690;4.400;2023-08-24T08:35:37;24.30;76.50
21493;DHT22;10908;50.690;4.400;2023-08-24T08:38:05;24.30;76.20
21493;DHT22;10908;50.690;4.400;2023-08-24T08:40:31;24.40;76.50
21493;DHT22;10908;50.690;4.400;2023-08-24T08:42:59;24.50;76.00
21493;DHT22;10908;50.690;4.400;2023-08-24T08:45:25;24.50;76.60
21493;DHT22;10908;50.690;4.400;2023-08-24T08:47:53;24.60;76.40
21493;DHT22;10908;50.690;4.400;2023-08-24T08:50:21;24.70;76.30
21493;DHT22;10908;50.690;4.400;2023-08-24T08:52:47;24.80;75.60
21493;DHT22;10908;50.690;4.400;2023-08-24T08:55:12;24.80;75.10
21493;DHT22;10908;50.690;4.400;2023-08-24T08:57:41;24.90;74.90
21493;DHT22;10908;50.690;4.400;2023-08-24T09:00:12;25.00;75.10
21493;DHT22;10908;50.690;4.400;2023-08-24T09:02:39;25.00;74.90
21493;DHT22;10908;50.690;4.400;2023-08-24T09:05:07;24.90;74.70
21493;DHT22;10908;50.690;4.400;2023-08-24T09:07:34;24.80;75.10
21493;DHT22;10908;50.690;4.400;2023-08-24T09:10:02;24.70;75.10
21493;DHT22;10908;50.690;4.400;2023-08-24T09:12:31;24.60;74.90
21493;DHT22;10908;50.690;4.400;2023-08-24T09:14:58;24.60;75.10
21493;DHT22;10908;50.690;4.400;2023-08-24T09:17:24;24.50;75.50
21493;DHT22;10908;50.690;4.400;2023-08-24T09:19:52;24.40;76.00
21493;DHT22;10908;50.690;4.400;2023-08-24T09:22:18;24.30;76.20
21493;DHT22;10908;50.690;4.400;2023-08-24T09:24:44;24.20;76.60
21493;DHT22;10908;50.690;4.400;2023-08-24T09:27:21;24.20;76.80
21493;DHT22;10908;50.690;4.400;2023-08-24T09:29:51;24.10;77.20
21493;DHT22;10908;50.690;4.400;2023-08-24T09:32:32;24.10;77.60
21493;DHT22;10908;50.690;4.400;2023-08-24T09:35:08;24.10;78.40
21493;DHT22;10908;50.690;4.400;2023-08-24T09:37:34;23.80;79.20
21493;DHT22;10908;50.690;4.400;2023-08-24T09:40:07;23.70;80.10
21493;DHT22;10908;50.690;4.400;2023-08-24T09:42:43;23.40;80.90
21493;DHT22;10908;50.690;4.400;2023-08-24T09:45:12;23.00;81.10
21493;DHT22;10908;50.690;4.400;2023-08-24T09:47:38;22.80;82.50
21493;DHT22;10908;50.690;4.400;2023-08-24T09:50:04;22.60;82.80
21493;DHT22;10908;50.690;4.400;2023-08-24T09:52:34;22.40;83.60
21493;DHT22;10908;50.690;4.400;2023-08-24T09:55:05;22.30;84.10
21493;DHT22;10908;50.690;4.400;2023-08-24T09:57:37;22.30;83.60
21493;DHT22;10908;50.690;4.400;2023-08-24T10:00:08;22.20;84.10
21493;DHT22;10908;50.690;4.400;2023-08-24T10:02:50;22.00;84.40
21493;DHT22;10908;50.690;4.400;2023-08-24T10:05:24;22.10;84.60
21493;DHT22;10908;50.690;4.400;2023-08-24T10:07:52;22.00;84.00
21493;DHT22;10908;50.690;4.400;2023-08-24T10:10:20;21.90;84.20
21493;DHT22;10908;50.690;4.400;2023-08-24T10:12:50;21.90;84.70
21493;DHT22;10908;50.690;4.400;2023-08-24T10:15:17;21.90;84.60
21493;DHT22;10908;50.690;4.400;2023-08-24T10:17:44;21.90;84.60
21493;DHT22;10908;50.690;4.400;2023-08-24T10:20:11;21.80;84.60
21493;DHT22;10908;50.690;4.400;2023-08-24T10:22:38;21.90;84.70
21493;DHT22;10908;50.690;4.400;2023-08-24T10:25:07;21.80;84.70
21493;DHT22;10908;50.690;4.400;2023-08-24T10:27:34;21.80;85.30
21493;DHT22;10908;50.690;4.400;2023-08-24T10:30:00;21.90;85.80
21493;DHT22;10908;50.690;4.400;2023-08-24T10:32:27;21.70;86.00
21493;DHT22;10908;50.690;4.400;2023-08-24T10:34:53;21.90;86.10
21493;DHT22;10908;50.690;4.400;2023-08-24T10:37:25;21.90;86.00
21493;DHT22;10908;50.690;4.400;2023-08-24T10:39:51;21.90;85.90
21493;DHT22;10908;50.690;4.400;2023-08-24T10:42:17;22.00;86.10
21493;DHT22;10908;50.690;4.400;2023-08-24T10:44:47;22.10;85.90
21493;DHT22;10908;50.690;4.400;2023-08-24T10:47:14;22.30;85.50
21493;DHT22;10908;50.690;4.400;2023-08-24T10:49:57;22.20;85.10
21493;DHT22;10908;50.690;4.400;2023-08-24T10:52:25;22.00;85.20
21493;DHT22;10908;50.690;4.400;2023-08-24T10:54:52;21.60;86.60
21493;DHT22;10908;50.690;4.400;2023-08-24T10:57:37;21.50;87.40
21493;DHT22;10908;50.690;4.400;2023-08-24T11:00:11;21.80;88.10
21493;DHT22;10908;50.690;4.400;2023-08-24T11:02:48;22.20;88.10
21493;DHT22;10908;50.690;4.400;2023-08-24T11:05:28;22.50;87.20
21493;DHT22;10908;50.690;4.400;2023-08-24T11:08:05;22.60;86.30
21493;DHT22;10908;50.690;4.400;2023-08-24T11:10:44;22.80;85.60
21493;DHT22;10908;50.690;4.400;2023-08-24T11:13:16;22.90;86.00
21493;DHT22;10908;50.690;4.400;2023-08-24T11:15:47;23.00;85.60
21493;DHT22;10908;50.690;4.400;2023-08-24T11:20:50;23.20;84.10
21493;DHT22;10908;50.690;4.400;2023-08-24T11:23:16;23.20;83.60
21493;DHT22;10908;50.690;4.400;2023-08-24T11:25:42;23.20;84.10
21493;DHT22;10908;50.690;4.400;2023-08-24T11:28:08;23.20;83.90
21493;DHT22;10908;50.690;4.400;2023-08-24T11:30:34;23.20;83.80
21493;DHT22;10908;50.690;4.400;2023-08-24T11:33:01;23.20;83.80
21493;DHT22;10908;50.690;4.400;2023-08-24T11:35:27;23.10;83.70
21493;DHT22;10908;50.690;4.400;2023-08-24T11:37:57;22.90;84.50
21493;DHT22;10908;50.690;4.400;2023-08-24T11:40:23;22.80;84.90
21493;DHT22;10908;50.690;4.400;2023-08-24T11:42:56;22.80;84.80
21493;DHT22;10908;50.690;4.400;2023-08-24T11:45:22;22.80;85.10
21493;DHT22;10908;50.690;4.400;2023-08-24T11:47:49;22.70;85.60
21493;DHT22;10908;50.690;4.400;2023-08-24T11:50:16;22.70;85.30
21493;DHT22;10908;50.690;4.400;2023-08-24T11:52:42;22.70;85.10
21493;DHT22;10908;50.690;4.400;2023-08-24T11:55:08;22.60;85.40
21493;DHT22;10908;50.690;4.400;2023-08-24T11:57:38;22.40;85.60
21493;DHT22;10908;50.690;4.400;2023-08-24T12:00:05;22.50;86.10
21493;DHT22;10908;50.690;4.400;2023-08-24T12:02:32;22.50;86.10
21493;DHT22;10908;50.690;4.400;2023-08-24T12:04:58;22.50;85.80
21493;DHT22;10908;50.690;4.400;2023-08-24T12:07:24;22.50;85.80
21493;DHT22;10908;50.690;4.400;2023-08-24T12:09:50;22.40;86.10
21493;DHT22;10908;50.690;4.400;2023-08-24T12:12:18;22.30;86.50
21493;DHT22;10908;50.690;4.400;2023-08-24T12:14:49;22.20;86.50
21493;DHT22;10908;50.690;4.400;2023-08-24T12:17:16;22.10;87.00
21493;DHT22;10908;50.690;4.400;2023-08-24T12:20:01;22.00;87.20
21493;DHT22;10908;50.690;4.400;2023-08-24T12:22:31;22.00;87.40
21493;DHT22;10908;50.690;4.400;2023-08-24T12:24:57;21.90;87.40
21493;DHT22;10908;50.690;4.400;2023-08-24T12:27:24;21.90;87.60
21493;DHT22;10908;50.690;4.400;2023-08-24T12:29:51;21.80;87.90
21493;DHT22;10908;50.690;4.400;2023-08-24T12:32:18;21.80;88.00
21493;DHT22;10908;50.690;4.400;2023-08-24T12:34:50;21.80;88.00
21493;DHT22;10908;50.690;4.400;2023-08-24T12:37:20;21.70;87.90
21493;DHT22;10908;50.690;4.400;2023-08-24T12:39:46;21.60;88.20
21493;DHT22;10908;50.690;4.400;2023-08-24T12:42:11;21.60;87.90
21493;DHT22;10908;50.690;4.400;2023-08-24T12:44:37;21.50;87.90
21493;DHT22;10908;50.690;4.400;2023-08-24T12:47:03;21.50;87.70
21493;DHT22;10908;50.690;4.400;2023-08-24T12:49:29;21.40;87.70
21493;DHT22;10908;50.690;4.400;2023-08-24T12:51:54;21.40;87.90
21493;DHT22;10908;50.690;4.400;2023-08-24T12:54:20;21.40;87.90
21493;DHT22;10908;50.690;4.400;2023-08-24T12:56:46;21.30;87.80
21493;DHT22;10908;50.690;4.400;2023-08-24T12:59:12;21.30;88.10
21493;DHT22;10908;50.690;4.400;2023-08-24T13:01:38;21.20;88.30
21493;DHT22;10908;50.690;4.400;2023-08-24T13:04:04;21.40;88.00
21493;DHT22;10908;50.690;4.400;2023-08-24T13:06:30;21.40;87.80
21493;DHT22;10908;50.690;4.400;2023-08-24T13:08:56;21.40;87.50
21493;DHT22;10908;50.690;4.400;2023-08-24T13:11:22;21.20;87.60
21493;DHT22;10908;50.690;4.400;2023-08-24T13:13:48;21.30;87.70
21493;DHT22;10908;50.690;4.400;2023-08-24T13:16:14;21.20;87.40
21493;DHT22;10908;50.690;4.400;2023-08-24T13:18:41;21.20;87.20
21493;DHT22;10908;50.690;4.400;2023-08-24T13:21:07;21.30;86.80
21493;DHT22;10908;50.690;4.400;2023-08-24T13:23:32;21.30;86.70
21493;DHT22;10908;50.690;4.400;2023-08-24T13:25:59;21.30;86.40
21493;DHT22;10908;50.690;4.400;2023-08-24T13:28:25;21.10;86.60
21493;DHT22;10908;50.690;4.400;2023-08-24T13:30:51;21.10;86.50
21493;DHT22;10908;50.690;4.400;2023-08-24T13:33:17;21.20;86.50
21493;DHT22;10908;50.690;4.400;2023-08-24T13:35:45;21.20;86.30
21493;DHT22;10908;50.690;4.400;2023-08-24T13:38:10;21.30;86.20
21493;DHT22;10908;50.690;4.400;2023-08-24T13:40:36;21.30;86.20
21493;DHT22;10908;50.690;4.400;2023-08-24T13:43:02;21.30;86.00
21493;DHT22;10908;50.690;4.400;2023-08-24T13:45:27;21.30;86.20
21493;DHT22;10908;50.690;4.400;2023-08-24T13:47:56;21.40;86.10
21493;DHT22;10908;50.690;4.400;2023-08-24T13:50:21;21.30;86.20
21493;DHT22;10908;50.690;4.400;2023-08-24T13:52:47;21.30;86.60
21493;DHT22;10908;50.690;4.400;2023-08-24T13:55:13;21.30;86.40
21493;DHT22;10908;50.690;4.400;2023-08-24T13:57:38;21.30;86.60
21493;DHT22;10908;50.690;4.400;2023-08-24T14:00:04;21.40;86.40
21493;DHT22;10908;50.690;4.400;2023-08-24T14:02:33;21.40;86.50
21493;DHT22;10908;50.690;4.400;2023-08-24T14:04:58;21.20;86.90
21493;DHT22;10908;50.690;4.400;2023-08-24T14:07:24;21.30;87.30
21493;DHT22;10908;50.690;4.400;2023-08-24T14:09:50;21.30;87.20
21493;DHT22;10908;50.690;4.400;2023-08-24T14:12:15;21.30;87.10
21493;DHT22;10908;50.690;4.400;2023-08-24T14:14:41;21.30;87.10
21493;DHT22;10908;50.690;4.400;2023-08-24T14:17:07;21.30;87.10
21493;DHT22;10908;50.690;4.400;2023-08-24T14:19:33;21.20;87.50
21493;DHT22;10908;50.690;4.400;2023-08-24T14:21:58;21.10;87.60
21493;DHT22;10908;50.690;4.400;2023-08-24T14:24:24;21.30;87.80
21493;DHT22;10908;50.690;4.400;2023-08-24T14:26:49;21.30;87.50
21493;DHT22;10908;50.690;4.400;2023-08-24T14:29:16;21.60;87.30
21493;DHT22;10908;50.690;4.400;2023-08-24T14:31:41;21.80;86.70
21493;DHT22;10908;50.690;4.400;2023-08-24T14:34:07;21.90;85.90
21493;DHT22;10908;50.690;4.400;2023-08-24T14:36:33;22.00;85.70
21493;DHT22;10908;50.690;4.400;2023-08-24T14:38:59;22.00;85.30
21493;DHT22;10908;50.690;4.400;2023-08-24T14:41:25;21.90;85.50
21493;DHT22;10908;50.690;4.400;2023-08-24T14:43:50;21.80;85.30
21493;DHT22;10908;50.690;4.400;2023-08-24T14:46:16;21.90;85.70
21493;DHT22;10908;50.690;4.400;2023-08-24T14:48:42;22.00;85.20
21493;DHT22;10908;50.690;4.400;2023-08-24T14:51:08;22.00;85.00
21493;DHT22;10908;50.690;4.400;2023-08-24T14:53:33;22.10;85.10
21493;DHT22;10908;50.690;4.400;2023-08-24T14:55:59;22.20;84.80
21493;DHT22;10908;50.690;4.400;2023-08-24T14:58:26;22.30;84.10
21493;DHT22;10908;50.690;4.400;2023-08-24T15:00:53;22.40;83.80
21493;DHT22;10908;50.690;4.400;2023-08-24T15:03:21;22.40;83.40
21493;DHT22;10908;50.690;4.400;2023-08-24T15:05:59;22.40;83.50
21493;DHT22;10908;50.690;4.400;2023-08-24T15:08:26;22.50;82.90
21493;DHT22;10908;50.690;4.400;2023-08-24T15:10:55;22.60;83.10
21493;DHT22;10908;50.690;4.400;2023-08-24T15:13:22;22.70;82.30
21493;DHT22;10908;50.690;4.400;2023-08-24T15:15:47;22.70;82.00
21493;DHT22;10908;50.690;4.400;2023-08-24T15:18:13;22.60;81.80
21493;DHT22;10908;50.690;4.400;2023-08-24T15:20:39;22.40;81.80
21493;DHT22;10908;50.690;4.400;2023-08-24T15:23:05;22.40;82.20
21493;DHT22;10908;50.690;4.400;2023-08-24T15:25:32;22.50;82.00
21493;DHT22;10908;50.690;4.400;2023-08-24T15:27:58;22.50;81.70
21493;DHT22;10908;50.690;4.400;2023-08-24T15:30:24;22.50;81.30
21493;DHT22;10908;50.690;4.400;2023-08-24T15:32:49;22.60;81.40
21493;DHT22;10908;50.690;4.400;2023-08-24T15:35:15;22.70;81.70